KGCY/GCY METAR and TAF weather

Enter ICAO airport designator
Station Type Date Time Source
KGCY METAR 2022/01/29 02:15 UTC NOAA

KGCY 290215Z AUTO 28007KT 2SM BR FEW005 BKN008 OVC019 M02/M03 A2997 RMK A01


Station Type Date Time Source
KGCY Decoded METAR 2022/01/29 02:15 UTC NOAA

Station name not available
Jan 28, 2022 - 09:15 PM EST / 2022.01.29 0215 UTC
Wind: from the W (280 degrees) at 8 MPH (7 KT):0
Visibility: 2 mile(s):0
Sky conditions: overcast
Weather: mist
Temperature: 28 F (-2 C)
Windchill: 19 F (-7 C):1
Dew Point: 26 F (-3 C)
Relative Humidity: 92%
Pressure (altimeter): 29.97 in. Hg (1014 hPa)
ob: KGCY 290215Z AUTO 28007KT 2SM BR FEW005 BKN008 OVC019 M02/M03 A2997 RMK A01
cycle: 2

Station Type Date Time Source
KGCY TAF UTC NOAA

Error!

Example: see airport list